Time;durP1;ratioP1;P1;durP2;ratioP2;P2;SDS_P1;SDS_P2;PMS_P1;PMS_P2;Temp;Humidity;BMP_temperature;BMP_pressure;BME280_temperature;BME280_humidity;BME280_pressure;Samples;Min_cycle;Max_cycle;Signal;HPM_P1;HPM_P2
2023/04/14 00:01:23;;;;;;;2.05;1.83;;;5.80;99.90;;;;;;5071786;28;20205;-94
2023/04/14 00:04:07;;;;;;;3.78;2.00;;;5.80;99.90;;;;;;5065615;28;20204;-94
2023/04/14 00:09:41;;;;;;;2.72;2.00;;;5.80;99.90;;;;;;5057247;28;20174;-94
2023/04/14 00:12:27;;;;;;;3.83;2.28;;;5.80;99.90;;;;;;5057023;28;20207;-94
2023/04/14 00:15:03;;;;;;;3.38;2.05;;;5.80;99.90;;;;;;5057277;28;20261;-94
2023/04/14 00:17:38;;;;;;;4.05;1.95;;;5.80;99.90;;;;;;5056896;28;20186;-95
2023/04/14 00:20:10;;;;;;;2.15;1.98;;;5.80;99.90;;;;;;5057192;28;20236;-94
2023/04/14 00:22:37;;;;;;;2.95;1.65;;;5.70;99.90;;;;;;5076680;23;20266;-68
2023/04/14 00:25:06;;;;;;;3.28;2.00;;;5.70;99.90;;;;;;5069480;28;20207;-67
2023/04/14 00:27:33;;;;;;;3.45;2.30;;;5.60;99.90;;;;;;5069287;28;20648;-67
2023/04/14 00:30:00;;;;;;;2.35;1.90;;;5.60;99.90;;;;;;5069693;28;20271;-67
2023/04/14 00:32:26;;;;;;;2.78;2.00;;;5.60;99.90;;;;;;5070022;28;20206;-66
2023/04/14 00:34:53;;;;;;;1.88;1.60;;;5.60;99.90;;;;;;5069718;28;20216;-67
2023/04/14 00:37:20;;;;;;;3.35;2.05;;;5.50;99.90;;;;;;5069870;28;20222;-67
2023/04/14 00:39:46;;;;;;;5.10;2.60;;;5.50;99.90;;;;;;5069315;28;20550;-67
2023/04/14 00:42:14;;;;;;;2.40;1.92;;;5.50;99.90;;;;;;5070026;28;20201;-66
2023/04/14 00:44:41;;;;;;;3.67;2.70;;;5.50;99.90;;;;;;5069575;28;20228;-66
2023/04/14 00:47:08;;;;;;;6.68;2.15;;;5.40;99.90;;;;;;5072858;28;20227;-66
2023/04/14 00:49:36;;;;;;;2.15;1.88;;;5.40;99.90;;;;;;5073133;28;20209;-67
2023/04/14 00:52:03;;;;;;;4.18;2.03;;;5.40;99.90;;;;;;5073791;28;20200;-68
2023/04/14 00:54:32;;;;;;;6.57;2.28;;;5.30;99.90;;;;;;5073665;28;20208;-68
2023/04/14 00:56:59;;;;;;;2.42;1.75;;;5.30;99.90;;;;;;5073213;28;20212;-68
2023/04/14 00:59:28;;;;;;;2.55;1.58;;;5.30;99.90;;;;;;5073300;28;20235;-68
2023/04/14 01:01:56;;;;;;;2.75;2.00;;;5.30;99.90;;;;;;5073043;28;20207;-67
2023/04/14 01:04:23;;;;;;;4.32;1.63;;;5.30;99.90;;;;;;5073288;28;20222;-68
2023/04/14 01:06:49;;;;;;;2.88;1.70;;;5.30;99.90;;;;;;5072707;28;20232;-68
2023/04/14 01:09:16;;;;;;;4.68;2.08;;;5.30;99.90;;;;;;5073252;28;20196;-68
2023/04/14 01:11:51;;;;;;;2.15;1.35;;;5.30;99.90;;;;;;5072572;28;20202;-66
2023/04/14 01:14:26;;;;;;;4.75;1.70;;;5.30;99.90;;;;;;5073433;28;20199;-67
2023/04/14 01:17:01;;;;;;;1.58;1.40;;;5.30;99.90;;;;;;5072672;28;20223;-67
2023/04/14 01:19:42;;;;;;;7.07;2.38;;;5.30;99.90;;;;;;5072963;28;20663;-67
2023/04/14 01:22:10;;;;;;;3.20;2.00;;;5.30;99.90;;;;;;5073265;28;20298;-67
2023/04/14 01:25:05;;;;;;;3.20;1.80;;;5.20;99.90;;;;;;5072821;28;20291;-68
2023/04/14 01:27:40;;;;;;;2.88;1.73;;;5.20;99.90;;;;;;5072767;28;20216;-68
2023/04/14 01:30:21;;;;;;;2.75;1.77;;;5.20;99.90;;;;;;5072762;28;20210;-68
2023/04/14 01:32:52;;;;;;;7.85;2.35;;;5.10;99.90;;;;;;5072335;28;20682;-66
2023/04/14 01:35:31;;;;;;;4.03;1.63;;;5.00;99.90;;;;;;5072659;28;20204;-68
2023/04/14 01:38:04;;;;;;;2.28;1.80;;;4.90;99.90;;;;;;5072421;28;20212;-67
2023/04/14 01:40:33;;;;;;;5.38;1.80;;;4.90;99.90;;;;;;5072393;28;20672;-68
2023/04/14 01:43:04;;;;;;;2.33;1.30;;;4.80;99.90;;;;;;5072637;28;20894;-67
2023/04/14 01:45:37;;;;;;;2.20;1.40;;;4.80;99.90;;;;;;5072716;28;20193;-67
2023/04/14 01:48:07;;;;;;;3.55;1.95;;;4.70;99.90;;;;;;5072400;28;20594;-67
2023/04/14 01:50:36;;;;;;;2.42;1.40;;;4.60;99.90;;;;;;5072480;28;20201;-67
2023/04/14 01:53:07;;;;;;;3.80;1.65;;;4.50;99.90;;;;;;5072576;28;20208;-67
2023/04/14 01:55:36;;;;;;;2.90;1.52;;;4.50;99.90;;;;;;5072515;28;20211;-67
2023/04/14 01:58:05;;;;;;;6.43;2.30;;;4.40;99.90;;;;;;5071435;28;20244;-68
2023/04/14 02:00:33;;;;;;;3.90;1.30;;;4.40;99.90;;;;;;5072227;28;20196;-67
2023/04/14 02:03:00;;;;;;;4.45;1.80;;;4.30;99.90;;;;;;5063808;28;20204;-66
2023/04/14 02:05:29;;;;;;;2.70;1.92;;;4.20;99.90;;;;;;5072388;28;20232;-68
2023/04/14 02:07:59;;;;;;;2.60;1.67;;;4.10;99.90;;;;;;5071466;28;20777;-68
2023/04/14 02:10:27;;;;;;;3.80;1.60;;;4.00;99.90;;;;;;5071879;28;20225;-68
2023/04/14 02:12:57;;;;;;;3.88;1.55;;;3.90;99.90;;;;;;5071882;28;20200;-67
2023/04/14 02:15:27;;;;;;;2.80;1.70;;;3.90;99.90;;;;;;5072343;28;20250;-66
2023/04/14 02:17:56;;;;;;;3.85;1.63;;;3.80;99.90;;;;;;5071502;28;20711;-67
2023/04/14 02:20:25;;;;;;;4.35;2.25;;;3.80;99.90;;;;;;5071905;28;20204;-67
2023/04/14 02:22:53;;;;;;;2.10;1.60;;;3.80;99.90;;;;;;5071547;28;20204;-66
2023/04/14 02:25:23;;;;;;;6.50;2.15;;;3.70;99.90;;;;;;5071984;28;20603;-67
2023/04/14 02:27:55;;;;;;;3.20;1.77;;;3.60;99.90;;;;;;5071325;28;20228;-67
2023/04/14 02:30:24;;;;;;;1.83;1.70;;;3.60;99.90;;;;;;5071530;28;20283;-66
2023/04/14 02:32:57;;;;;;;3.33;1.83;;;3.50;99.90;;;;;;5071403;28;20200;-67
2023/04/14 02:35:27;;;;;;;2.35;2.03;;;3.40;99.90;;;;;;5071900;28;20197;-66
2023/04/14 02:38:03;;;;;;;2.40;1.85;;;3.30;99.90;;;;;;5071254;28;20216;-67
2023/04/14 02:40:32;;;;;;;2.17;1.55;;;3.30;99.90;;;;;;5071384;28;20207;-66
2023/04/14 02:43:04;;;;;;;1.90;1.30;;;3.20;99.90;;;;;;5071301;28;20200;-67
2023/04/14 02:45:32;;;;;;;3.47;2.00;;;3.10;99.90;;;;;;5071631;28;20200;-67
2023/04/14 02:48:03;;;;;;;1.88;1.77;;;3.10;99.90;;;;;;5070661;28;20223;-67
2023/04/14 02:50:32;;;;;;;2.95;1.83;;;3.10;99.90;;;;;;5071119;28;20197;-67
2023/04/14 02:53:02;;;;;;;3.10;1.92;;;3.10;99.90;;;;;;5071018;28;20201;-66
2023/04/14 02:55:30;;;;;;;2.50;1.90;;;3.00;99.90;;;;;;5071531;28;20254;-66
2023/04/14 02:57:58;;;;;;;3.15;2.40;;;3.00;99.90;;;;;;5070725;28;20220;-67
2023/04/14 03:00:26;;;;;;;2.75;1.70;;;3.00;99.90;;;;;;5071012;28;20199;-67
2023/04/14 03:02:53;;;;;;;2.22;1.55;;;2.90;99.90;;;;;;5070752;28;20197;-67
2023/04/14 03:05:21;;;;;;;5.65;2.10;;;2.90;99.90;;;;;;5071103;28;20192;-67
2023/04/14 03:07:49;;;;;;;3.30;2.03;;;2.80;99.90;;;;;;5071285;28;20619;-66
2023/04/14 03:10:18;;;;;;;1.30;1.20;;;2.80;99.90;;;;;;5089993;28;20200;-67
2023/04/14 03:12:47;;;;;;;1.65;1.40;;;2.70;99.90;;;;;;5090644;28;20249;-67
2023/04/14 03:15:15;;;;;;;8.02;2.35;;;2.70;99.90;;;;;;5090837;28;20195;-67
2023/04/14 03:17:44;;;;;;;2.25;1.48;;;2.60;99.90;;;;;;5090559;28;20212;-67
2023/04/14 03:20:13;;;;;;;1.92;1.42;;;2.60;99.90;;;;;;5090752;28;20204;-68
2023/04/14 03:22:40;;;;;;;3.30;2.20;;;2.60;99.90;;;;;;5090660;28;20223;-67
2023/04/14 03:25:08;;;;;;;3.90;1.50;;;2.60;99.90;;;;;;5090908;28;20202;-67
2023/04/14 03:27:37;;;;;;;2.78;1.90;;;2.60;99.90;;;;;;5090850;28;20242;-67
2023/04/14 03:30:07;;;;;;;4.40;1.55;;;2.60;99.90;;;;;;5089907;28;20207;-67
2023/04/14 03:32:40;;;;;;;1.90;1.42;;;2.50;99.90;;;;;;5068671;28;20579;-67
2023/04/14 03:35:08;;;;;;;2.13;1.60;;;2.50;99.90;;;;;;5067255;28;20573;-66
2023/04/14 03:37:39;;;;;;;2.08;1.67;;;2.40;99.90;;;;;;5063755;28;20224;-66
2023/04/14 03:40:09;;;;;;;5.53;1.80;;;2.40;99.90;;;;;;5065953;28;20196;-66
2023/04/14 03:42:43;;;;;;;4.75;2.38;;;2.40;99.90;;;;;;5064504;28;20212;-67
2023/04/14 03:45:11;;;;;;;2.85;1.60;;;2.30;99.90;;;;;;5063288;28;20622;-67
2023/04/14 03:47:38;;;;;;;2.45;1.42;;;2.30;99.90;;;;;;5061124;28;20231;-67
2023/04/14 03:50:08;;;;;;;2.90;1.30;;;2.30;99.90;;;;;;5060094;28;20250;-67
2023/04/14 03:52:37;;;;;;;2.38;1.23;;;2.30;99.90;;;;;;5061102;28;20208;-67
2023/04/14 03:55:06;;;;;;;4.80;1.80;;;2.30;99.90;;;;;;5063033;28;20197;-67
2023/04/14 03:57:34;;;;;;;2.80;1.65;;;2.20;99.90;;;;;;5061231;28;20220;-67
2023/04/14 04:00:04;;;;;;;2.85;1.90;;;2.20;99.90;;;;;;5061908;28;20201;-67
2023/04/14 04:02:32;;;;;;;5.50;1.92;;;2.10;99.90;;;;;;5062734;28;20204;-67
2023/04/14 04:05:00;;;;;;;3.45;1.92;;;2.10;99.90;;;;;;5062411;28;20209;-67
2023/04/14 04:07:28;;;;;;;3.55;1.52;;;2.00;99.90;;;;;;5066719;28;20228;-67
2023/04/14 04:09:56;;;;;;;2.17;1.75;;;1.90;99.90;;;;;;5061428;28;20235;-67
2023/04/14 04:12:25;;;;;;;3.17;1.80;;;1.90;99.90;;;;;;5065552;28;20303;-67
2023/04/14 04:14:52;;;;;;;4.85;1.70;;;1.80;99.90;;;;;;5061206;28;20224;-67
2023/04/14 04:17:23;;;;;;;4.18;2.10;;;1.90;99.90;;;;;;5062752;28;20224;-66
2023/04/14 04:19:51;;;;;;;1.77;1.65;;;1.90;99.90;;;;;;5060344;28;20221;-67
2023/04/14 04:22:20;;;;;;;4.70;1.85;;;1.80;99.90;;;;;;5066670;28;20578;-66
2023/04/14 04:24:49;;;;;;;1.13;1.02;;;1.80;99.90;;;;;;5064811;28;20200;-67
2023/04/14 04:27:17;;;;;;;2.70;2.00;;;1.80;99.90;;;;;;5072854;28;20222;-66
2023/04/14 04:29:44;;;;;;;2.90;1.23;;;1.80;99.90;;;;;;5073123;28;20197;-66
2023/04/14 04:32:11;;;;;;;1.85;1.30;;;1.70;99.90;;;;;;5072372;28;20201;-66
2023/04/14 04:34:39;;;;;;;2.25;1.73;;;1.70;99.90;;;;;;5072477;28;20207;-67
2023/04/14 04:37:06;;;;;;;2.95;1.80;;;1.70;99.90;;;;;;5072943;28;21003;-68
2023/04/14 04:39:33;;;;;;;3.30;1.70;;;1.70;99.90;;;;;;5073334;28;20208;-67
2023/04/14 04:42:03;;;;;;;5.90;2.35;;;1.70;99.90;;;;;;5073300;28;20667;-67
2023/04/14 04:44:32;;;;;;;3.17;1.40;;;1.70;99.90;;;;;;5073662;28;20193;-67
2023/04/14 04:46:59;;;;;;;5.47;2.55;;;1.70;99.90;;;;;;5072432;28;20277;-65
2023/04/14 04:49:26;;;;;;;2.78;1.52;;;1.70;99.90;;;;;;5073249;28;20216;-67
2023/04/14 04:51:55;;;;;;;4.22;1.73;;;1.70;99.90;;;;;;5072978;28;20583;-66
2023/04/14 04:54:22;;;;;;;3.90;1.75;;;1.70;99.90;;;;;;5073196;28;20201;-67
2023/04/14 04:56:48;;;;;;;2.85;1.77;;;1.70;99.90;;;;;;5072856;28;20227;-67
2023/04/14 04:59:15;;;;;;;2.95;2.03;;;1.70;99.90;;;;;;5073359;28;20197;-65
2023/04/14 05:01:42;;;;;;;6.25;1.80;;;1.80;99.90;;;;;;5073133;28;20297;-67
2023/04/14 05:04:08;;;;;;;4.40;1.80;;;1.90;99.90;;;;;;5073168;28;20200;-67
2023/04/14 05:06:36;;;;;;;5.05;1.85;;;2.00;99.90;;;;;;5081092;28;20216;-66
2023/04/14 05:09:05;;;;;;;4.03;1.50;;;2.20;99.90;;;;;;5072810;28;20228;-66
2023/04/14 05:11:32;;;;;;;3.28;1.80;;;2.40;99.90;;;;;;5072774;28;20201;-66
2023/04/14 05:13:59;;;;;;;1.08;0.98;;;2.50;99.90;;;;;;5071679;28;20204;-67
2023/04/14 05:16:27;;;;;;;2.55;1.48;;;2.60;99.90;;;;;;5078323;28;20220;-66
2023/04/14 05:18:54;;;;;;;2.83;1.60;;;2.80;99.90;;;;;;5092638;28;20265;-67
2023/04/14 05:21:21;;;;;;;2.50;1.60;;;2.90;99.90;;;;;;5092602;28;20196;-66
2023/04/14 05:23:48;;;;;;;6.93;1.35;;;3.10;99.90;;;;;;5092349;28;20199;-67
2023/04/14 05:26:44;;;;;;;;;;;;;;;;;;;;;
2023/04/14 05:29:31;;;;;;;4.20;1.60;;;3.40;99.90;;;;;;5057936;28;20218;-90
2023/04/14 05:32:18;;;;;;;9.05;1.60;;;3.50;99.90;;;;;;5075087;28;20208;-90
2023/04/14 05:34:59;;;;;;;1.95;1.60;;;3.60;99.90;;;;;;5075648;28;20295;-91
2023/04/14 05:38:04;;;;;;;2.53;1.20;;;3.70;99.90;;;;;;5055944;28;20713;-91
2023/04/14 05:43:28;;;;;;;2.88;1.65;;;3.90;99.90;;;;;;5051262;28;20185;-92
2023/04/14 05:45:57;;;;;;;1.92;1.20;;;4.00;99.90;;;;;;5055938;28;20221;-91
2023/04/14 05:48:26;;;;;;;3.92;1.75;;;4.10;99.90;;;;;;5055582;28;20299;-92
2023/04/14 05:50:53;;;;;;;1.98;1.20;;;4.20;99.90;;;;;;5055591;28;20217;-91
2023/04/14 05:53:20;;;;;;;1.88;1.15;;;4.40;99.90;;;;;;5055327;28;20567;-91
2023/04/14 05:55:47;;;;;;;1.42;1.13;;;4.50;99.90;;;;;;5055433;28;20308;-91
2023/04/14 05:58:14;;;;;;;7.15;1.63;;;4.60;99.90;;;;;;5055588;28;20197;-92
2023/04/14 06:00:42;;;;;;;3.13;1.50;;;4.70;99.90;;;;;;5056840;28;20205;-93
2023/04/14 06:03:09;;;;;;;3.03;2.05;;;4.80;99.90;;;;;;5055822;28;20200;-91
2023/04/14 06:05:36;;;;;;;3.63;1.60;;;4.90;99.90;;;;;;5055523;28;20304;-92
2023/04/14 06:08:03;;;;;;;3.67;2.10;;;5.10;99.90;;;;;;5056012;28;20229;-91
2023/04/14 06:13:11;;;;;;;1.40;1.13;;;5.30;99.90;;;;;;5056961;28;20200;-91
2023/04/14 06:15:38;;;;;;;1.50;1.05;;;5.40;99.90;;;;;;5057046;28;20232;-93
2023/04/14 06:18:06;;;;;;;2.50;1.10;;;5.60;99.90;;;;;;5056851;28;20260;-93
2023/04/14 06:20:33;;;;;;;1.60;1.25;;;5.60;99.90;;;;;;5070338;28;20197;-90
2023/04/14 06:22:59;;;;;;;1.65;1.40;;;5.70;99.90;;;;;;5076964;28;20177;-91
2023/04/14 06:25:26;;;;;;;2.67;1.30;;;5.80;99.90;;;;;;5078448;28;20219;-89
2023/04/14 06:27:53;;;;;;;3.42;1.33;;;6.00;99.90;;;;;;5070487;28;20299;-90
2023/04/14 06:30:20;;;;;;;3.40;1.15;;;6.10;99.90;;;;;;5056697;28;20209;-91
2023/04/14 06:32:47;;;;;;;4.15;1.58;;;6.30;99.90;;;;;;5055910;28;20232;-91
2023/04/14 06:35:15;;;;;;;3.88;1.50;;;6.30;99.90;;;;;;5057055;28;20267;-91
2023/04/14 06:37:42;;;;;;;2.35;1.40;;;6.50;99.90;;;;;;5060331;28;20208;-93
2023/04/14 06:40:10;;;;;;;4.40;1.45;;;6.50;99.90;;;;;;5057132;28;20201;-93
2023/04/14 06:42:37;;;;;;;1.48;1.08;;;6.60;99.90;;;;;;5070406;28;20272;-92
2023/04/14 06:45:04;;;;;;;1.90;1.00;;;6.70;99.90;;;;;;5077747;28;20212;-93
2023/04/14 06:47:31;;;;;;;1.13;0.90;;;6.80;99.90;;;;;;5075802;28;20201;-89
2023/04/14 06:49:57;;;;;;;1.83;1.45;;;6.80;99.90;;;;;;5069284;28;20716;-89
2023/04/14 06:52:25;;;;;;;1.90;1.35;;;6.90;99.90;;;;;;5069570;28;20204;-91
2023/04/14 06:54:52;;;;;;;2.92;1.70;;;6.90;99.90;;;;;;5072326;28;20201;-90
2023/04/14 06:57:19;;;;;;;1.88;1.05;;;7.00;99.90;;;;;;5073124;28;20197;-89
2023/04/14 06:59:46;;;;;;;4.07;1.20;;;7.10;99.90;;;;;;5063078;28;20211;-89
2023/04/14 07:02:13;;;;;;;1.10;1.00;;;7.10;99.90;;;;;;5053964;28;20663;-89
2023/04/14 07:04:39;;;;;;;2.17;1.25;;;7.20;99.90;;;;;;5054305;28;20197;-89
2023/04/14 07:07:06;;;;;;;2.15;1.10;;;7.30;99.90;;;;;;5054047;28;20227;-89
2023/04/14 07:09:34;;;;;;;1.50;1.10;;;7.30;99.90;;;;;;5052279;28;20636;-89
2023/04/14 07:12:01;;;;;;;2.35;1.17;;;7.40;99.90;;;;;;5053891;28;20209;-89
2023/04/14 07:14:28;;;;;;;1.38;0.98;;;7.40;99.90;;;;;;5053710;28;20216;-89
2023/04/14 07:16:54;;;;;;;4.25;2.03;;;7.50;99.90;;;;;;5054105;28;20216;-88
2023/04/14 07:19:21;;;;;;;2.83;1.10;;;7.60;99.90;;;;;;5053238;28;20197;-88
2023/04/14 07:21:48;;;;;;;1.40;1.10;;;7.70;99.90;;;;;;5053188;28;20204;-89
2023/04/14 07:24:15;;;;;;;1.52;0.98;;;7.80;99.90;;;;;;5053405;28;20197;-89
2023/04/14 07:26:43;;;;;;;1.40;1.13;;;7.90;99.90;;;;;;5052530;28;20217;-89
2023/04/14 07:29:09;;;;;;;4.13;1.42;;;8.00;99.90;;;;;;5053719;28;20227;-89
2023/04/14 07:31:37;;;;;;;2.20;1.20;;;8.10;99.90;;;;;;5056049;28;20204;-91
2023/04/14 07:34:24;;;;;;;2.05;1.00;;;8.10;99.90;;;;;;5053811;28;20205;-90
2023/04/14 07:36:51;;;;;;;2.35;1.10;;;8.20;99.90;;;;;;5053307;28;20582;-90
2023/04/14 07:39:18;;;;;;;1.70;1.50;;;8.40;99.90;;;;;;5052976;28;20231;-89
2023/04/14 07:41:46;;;;;;;1.83;1.50;;;8.50;99.90;;;;;;5052898;28;20278;-90
2023/04/14 07:44:13;;;;;;;1.45;1.35;;;8.60;99.90;;;;;;5052791;28;20217;-90
2023/04/14 07:46:40;;;;;;;6.82;1.33;;;8.70;99.90;;;;;;5052518;28;20217;-90
2023/04/14 07:49:06;;;;;;;1.30;0.93;;;8.80;99.90;;;;;;5052549;28;20228;-89
2023/04/14 07:51:33;;;;;;;1.20;0.80;;;8.90;99.90;;;;;;5052504;28;20205;-89
2023/04/14 07:54:00;;;;;;;3.95;1.40;;;9.00;99.90;;;;;;5052945;28;20205;-89
2023/04/14 07:56:26;;;;;;;2.10;1.30;;;9.20;99.90;;;;;;5052706;28;20225;-89
2023/04/14 07:58:54;;;;;;;3.05;1.15;;;9.40;99.90;;;;;;5054617;28;20209;-89
2023/04/14 08:01:21;;;;;;;3.30;1.17;;;9.60;99.90;;;;;;5054530;28;20207;-89
2023/04/14 08:03:48;;;;;;;1.65;1.20;;;9.80;99.90;;;;;;5053664;28;20212;-89
2023/04/14 08:06:15;;;;;;;5.38;1.50;;;10.10;99.90;;;;;;5054063;28;20224;-89
2023/04/14 08:08:42;;;;;;;3.55;1.60;;;10.50;99.90;;;;;;5055374;28;20217;-90
2023/04/14 08:11:09;;;;;;;5.97;1.52;;;11.00;99.90;;;;;;5067871;28;20212;-89
2023/04/14 08:13:36;;;;;;;1.90;1.02;;;11.40;99.90;;;;;;5067635;28;20231;-89
2023/04/14 08:16:04;;;;;;;3.22;1.27;;;11.90;99.90;;;;;;5061199;28;20224;-89
2023/04/14 08:18:31;;;;;;;1.50;1.02;;;12.30;99.90;;;;;;5059670;28;20553;-89
2023/04/14 08:20:58;;;;;;;2.00;1.25;;;12.60;99.70;;;;;;5061223;28;20205;-90
2023/04/14 08:23:24;;;;;;;3.13;1.10;;;13.00;99.90;;;;;;5065594;28;20205;-89
2023/04/14 08:25:51;;;;;;;1.33;1.20;;;13.50;99.90;;;;;;5053598;28;20225;-88
2023/04/14 08:28:18;;;;;;;4.03;1.47;;;13.50;99.30;;;;;;5051829;28;20474;-89
2023/04/14 08:30:46;;;;;;;3.47;1.43;;;13.80;99.50;;;;;;5052040;28;20464;-89
2023/04/14 08:33:14;;;;;;;3.73;1.37;;;14.10;98.30;;;;;;5052267;28;20582;-89
2023/04/14 08:35:41;;;;;;;5.00;1.60;;;14.30;97.60;;;;;;5052873;28;20472;-88
2023/04/14 08:38:08;;;;;;;3.17;1.13;;;14.00;97.10;;;;;;5053536;28;20463;-88
2023/04/14 08:40:38;;;;;;;1.27;1.17;;;13.60;96.80;;;;;;5052410;28;20462;-89
2023/04/14 08:43:05;;;;;;;1.10;1.00;;;13.40;97.90;;;;;;5051937;28;20816;-88
2023/04/14 08:45:32;;;;;;;2.10;1.03;;;13.60;97.40;;;;;;5052149;28;20503;-89
2023/04/14 08:48:00;;;;;;;2.50;1.67;;;13.60;96.30;;;;;;5051932;28;20459;-89
2023/04/14 08:50:35;;;;;;;1.40;1.10;;;13.40;96.60;;;;;;5051879;28;20540;-88
2023/04/14 08:53:03;;;;;;;2.05;1.70;;;13.20;96.20;;;;;;5052341;28;20230;-89
2023/04/14 08:55:32;;;;;;;2.10;1.52;;;12.80;97.30;;;;;;5052120;28;20615;-88
2023/04/14 08:58:01;;;;;;;2.45;0.80;;;12.40;96.90;;;;;;5052245;28;20209;-89
2023/04/14 09:00:28;;;;;;;1.73;1.10;;;12.10;96.60;;;;;;5052400;28;20212;-89
2023/04/14 09:02:55;;;;;;;2.45;1.20;;;11.90;97.80;;;;;;5052121;28;20487;-89
2023/04/14 09:05:22;;;;;;;2.85;1.52;;;11.70;98.20;;;;;;5051794;28;20236;-88
2023/04/14 09:07:51;;;;;;;3.20;1.47;;;12.00;98.10;;;;;;5054576;28;20239;-90
2023/04/14 09:10:29;;;;;;;4.15;1.52;;;12.50;98.50;;;;;;5055471;28;20479;-88
2023/04/14 09:12:56;;;;;;;2.17;1.27;;;12.70;97.50;;;;;;5055650;28;20215;-89
2023/04/14 09:15:26;;;;;;;2.88;1.48;;;12.60;97.40;;;;;;5057358;28;20236;-89
2023/04/14 09:17:53;;;;;;;2.83;1.40;;;12.30;97.40;;;;;;5059017;28;20215;-89
2023/04/14 09:20:20;;;;;;;1.70;1.30;;;12.20;97.70;;;;;;5056214;28;20694;-90
2023/04/14 09:22:47;;;;;;;1.67;1.10;;;12.10;98.00;;;;;;5056157;28;20255;-89
2023/04/14 09:25:17;;;;;;;8.77;1.75;;;12.10;98.20;;;;;;5055268;28;20217;-89
2023/04/14 09:28:02;;;;;;;2.42;1.20;;;11.90;98.80;;;;;;5055701;28;20513;-89
2023/04/14 09:30:30;;;;;;;1.90;1.20;;;11.90;99.20;;;;;;5055143;28;20258;-89
2023/04/14 09:32:57;;;;;;;4.10;1.85;;;12.00;99.10;;;;;;5055544;28;20566;-88
2023/04/14 09:35:42;;;;;;;1.45;0.98;;;13.10;99.50;;;;;;5055253;28;20244;-89
2023/04/14 09:38:08;;;;;;;1.57;1.30;;;14.90;98.10;;;;;;5055438;28;20610;-89
2023/04/14 09:40:37;;;;;;;1.93;1.50;;;17.20;96.80;;;;;;5055412;28;20451;-89
2023/04/14 09:43:04;;;;;;;1.90;1.40;;;18.90;94.40;;;;;;5054983;28;20529;-90
2023/04/14 09:45:41;;;;;;;3.10;1.43;;;19.70;93.90;;;;;;5055161;28;20487;-89
2023/04/14 09:48:09;;;;;;;2.50;1.30;;;20.70;91.80;;;;;;5054671;28;20531;-89
2023/04/14 09:50:56;;;;;;;5.80;1.40;;;21.40;90.80;;;;;;5054909;28;20495;-89
2023/04/14 09:53:27;;;;;;;2.40;1.33;;;22.50;87.00;;;;;;5054613;28;20884;-90
2023/04/14 09:55:56;;;;;;;2.77;1.27;;;22.90;85.50;;;;;;5055665;28;20498;-89
2023/04/14 09:58:23;;;;;;;3.23;1.43;;;23.50;82.40;;;;;;5055771;28;20458;-88
2023/04/14 10:00:50;;;;;;;3.90;1.43;;;23.50;84.00;;;;;;5055391;28;20696;-88
2023/04/14 10:03:31;;;;;;;3.37;1.43;;;24.00;82.10;;;;;;5055354;28;20468;-88
2023/04/14 10:05:57;;;;;;;1.70;1.10;;;24.10;81.70;;;;;;5055643;28;20482;-89
2023/04/14 10:08:34;;;;;;;2.43;1.50;;;24.60;81.00;;;;;;5054522;28;20463;-89
2023/04/14 10:11:28;;;;;;;1.63;1.20;;;24.40;75.60;;;;;;5054428;28;20462;-89
2023/04/14 10:14:17;;;;;;;2.70;1.53;;;24.10;75.00;;;;;;5055064;28;20518;-89
2023/04/14 10:17:01;;;;;;;2.63;1.50;;;24.10;74.80;;;;;;5054731;28;21008;-89
2023/04/14 10:19:30;;;;;;;2.20;1.27;;;21.90;75.30;;;;;;5053807;28;20479;-88
2023/04/14 10:22:37;;;;;;;2.90;1.47;;;20.00;77.20;;;;;;5054853;28;20992;-90
2023/04/14 10:25:05;;;;;;;6.50;1.87;;;18.80;80.80;;;;;;5047626;22;20463;-68
2023/04/14 10:27:34;;;;;;;2.27;1.40;;;17.80;80.70;;;;;;5075755;28;20490;-69
2023/04/14 10:30:01;;;;;;;2.47;1.40;;;17.00;82.20;;;;;;5090919;28;20465;-68
2023/04/14 10:32:33;;;;;;;1.90;1.03;;;16.50;83.60;;;;;;5091236;28;20453;-68
2023/04/14 10:35:05;;;;;;;3.60;1.70;;;16.10;84.10;;;;;;5091418;28;20458;-68
2023/04/14 10:37:32;;;;;;;2.33;1.17;;;15.60;86.40;;;;;;5091322;28;20473;-68
2023/04/14 10:40:00;;;;;;;6.00;1.57;;;15.10;89.60;;;;;;5082309;28;20475;-68
2023/04/14 10:42:29;;;;;;;2.37;2.10;;;15.70;91.10;;;;;;5070911;28;20470;-68
2023/04/14 10:45:05;;;;;;;3.60;1.50;;;17.40;89.20;;;;;;5071167;28;20454;-68
2023/04/14 10:47:34;;;;;;;3.30;1.43;;;19.70;83.60;;;;;;5070579;28;20539;-69
2023/04/14 10:50:11;;;;;;;1.43;1.33;;;21.20;81.50;;;;;;5070497;28;20459;-68
2023/04/14 10:52:38;;;;;;;1.90;1.30;;;22.50;78.90;;;;;;5071168;28;20462;-68
2023/04/14 10:55:10;;;;;;;2.00;1.00;;;23.50;76.50;;;;;;5071141;28;20477;-68
2023/04/14 10:57:41;;;;;;;5.70;1.97;;;23.80;73.80;;;;;;5070537;28;20536;-68
2023/04/14 11:00:25;;;;;;;2.13;1.47;;;23.50;76.40;;;;;;5069812;28;20478;-67
2023/04/14 11:02:56;;;;;;;2.70;1.47;;;23.40;77.90;;;;;;5070609;28;20463;-69
2023/04/14 11:05:23;;;;;;;2.73;1.50;;;24.20;74.20;;;;;;5070271;28;20482;-68
2023/04/14 11:07:54;;;;;;;2.33;1.50;;;24.80;73.50;;;;;;5070192;28;21029;-68
2023/04/14 11:10:26;;;;;;;2.60;1.33;;;24.70;67.60;;;;;;5069633;28;20488;-68
2023/04/14 11:12:56;;;;;;;3.83;1.70;;;24.70;69.90;;;;;;5070584;28;20459;-68
2023/04/14 11:15:24;;;;;;;1.87;1.40;;;24.40;67.20;;;;;;5070297;28;20490;-68
2023/04/14 11:17:51;;;;;;;4.20;2.10;;;23.60;69.60;;;;;;5070208;28;20561;-69
2023/04/14 11:20:19;;;;;;;3.10;1.20;;;22.50;71.90;;;;;;5069634;28;20521;-69
2023/04/14 11:22:48;;;;;;;2.13;1.37;;;21.40;76.30;;;;;;5070179;28;20817;-69
2023/04/14 11:25:16;;;;;;;4.03;1.60;;;22.10;76.90;;;;;;5069811;28;20465;-68
2023/04/14 11:27:44;;;;;;;2.37;1.20;;;22.90;76.40;;;;;;5121908;22;20500;-68
2023/04/14 11:30:15;;;;;;;3.13;1.83;;;23.70;75.70;;;;;;5049047;28;20462;-68
2023/04/14 11:32:48;;;;;;;1.50;1.40;;;24.30;75.60;;;;;;5050356;28;20982;-68
2023/04/14 11:35:15;;;;;;;4.10;1.60;;;24.80;72.60;;;;;;5049806;28;20930;-68
2023/04/14 11:37:42;;;;;;;2.40;1.33;;;25.40;71.70;;;;;;5050160;28;20504;-68
2023/04/14 11:40:10;;;;;;;2.30;1.40;;;25.60;68.50;;;;;;5049478;28;20717;-68
2023/04/14 11:42:37;;;;;;;4.50;1.53;;;25.40;68.40;;;;;;5049944;28;20467;-68
2023/04/14 11:45:04;;;;;;;1.90;1.43;;;24.00;68.30;;;;;;5050222;28;20468;-68
2023/04/14 11:47:31;;;;;;;2.43;1.30;;;22.70;68.60;;;;;;5049725;28;20487;-67
2023/04/14 11:50:04;;;;;;;2.47;1.47;;;22.00;69.80;;;;;;5050123;28;20966;-68
2023/04/14 11:52:31;;;;;;;4.13;1.87;;;21.20;69.80;;;;;;5050111;28;20486;-67
2023/04/14 11:54:57;;;;;;;3.00;1.20;;;20.90;72.10;;;;;;5050009;28;20464;-67
2023/04/14 11:57:24;;;;;;;2.40;1.27;;;21.60;71.30;;;;;;5034104;28;20711;-67
2023/04/14 11:59:51;;;;;;;3.90;1.70;;;22.70;70.70;;;;;;5049882;28;20479;-67
2023/04/14 12:02:20;;;;;;;1.40;1.00;;;23.50;69.70;;;;;;5049361;28;20467;-67
2023/04/14 12:04:48;;;;;;;4.53;2.83;;;24.10;67.90;;;;;;5049791;28;20471;-67
2023/04/14 12:07:17;;;;;;;3.43;1.20;;;24.80;66.70;;;;;;5049100;28;20486;-67
2023/04/14 12:09:47;;;;;;;3.23;1.43;;;25.30;66.00;;;;;;5049099;28;20820;-68
2023/04/14 12:12:15;;;;;;;2.33;1.40;;;25.60;68.40;;;;;;5049432;28;20495;-68
2023/04/14 12:14:44;;;;;;;3.67;1.53;;;26.30;66.30;;;;;;5049893;28;20463;-67
2023/04/14 12:17:12;;;;;;;3.10;1.60;;;26.30;66.80;;;;;;5049052;28;20995;-67
2023/04/14 12:19:39;;;;;;;2.13;1.40;;;26.20;66.80;;;;;;5049288;28;20889;-67
2023/04/14 12:22:08;;;;;;;3.57;1.50;;;25.80;66.40;;;;;;5049443;28;20462;-67
2023/04/14 12:24:37;;;;;;;3.10;1.67;;;26.00;68.60;;;;;;5049566;28;20812;-67
2023/04/14 12:27:05;;;;;;;3.00;1.20;;;26.10;68.60;;;;;;5049563;28;20540;-68
2023/04/14 12:29:33;;;;;;;1.73;1.50;;;26.30;66.70;;;;;;5048998;28;20460;-68
2023/04/14 12:32:01;;;;;;;2.30;1.50;;;26.40;65.90;;;;;;5049288;28;20955;-68
2023/04/14 12:34:30;;;;;;;3.10;1.40;;;26.20;63.60;;;;;;5049067;28;20893;-68
2023/04/14 12:36:57;;;;;;;5.20;2.07;;;24.60;65.90;;;;;;5049335;28;20479;-67
2023/04/14 12:39:26;;;;;;;2.80;1.57;;;22.80;67.90;;;;;;5041147;28;20955;-67
2023/04/14 12:41:57;;;;;;;2.70;1.53;;;21.30;69.00;;;;;;5050489;28;20479;-67
2023/04/14 12:44:24;;;;;;;3.33;1.87;;;20.20;70.10;;;;;;5053403;28;20482;-67
2023/04/14 12:46:53;;;;;;;3.03;1.20;;;19.20;71.90;;;;;;5053238;28;20538;-67
2023/04/14 12:49:33;;;;;;;3.80;1.77;;;18.40;72.20;;;;;;5052860;28;20459;-67
2023/04/14 12:52:00;;;;;;;2.67;1.30;;;17.70;73.60;;;;;;5053080;28;20902;-67
2023/04/14 12:54:26;;;;;;;3.17;1.50;;;17.10;74.80;;;;;;5052987;28;20470;-67
2023/04/14 12:56:56;;;;;;;2.77;1.53;;;17.10;75.30;;;;;;5052805;28;21023;-67
2023/04/14 12:59:22;;;;;;;2.40;1.30;;;16.90;75.70;;;;;;5052678;28;20459;-67
2023/04/14 13:01:49;;;;;;;2.90;1.60;;;17.20;75.50;;;;;;5052935;28;20483;-67
2023/04/14 13:04:15;;;;;;;2.57;1.57;;;18.40;76.10;;;;;;5052671;28;20459;-67
2023/04/14 13:06:42;;;;;;;1.97;1.30;;;19.70;74.20;;;;;;5052828;28;20479;-67
2023/04/14 13:09:10;;;;;;;1.40;1.20;;;20.70;65.70;;;;;;5052808;28;20474;-67
2023/04/14 13:11:37;;;;;;;2.10;1.50;;;20.80;69.30;;;;;;5052595;28;20456;-68
2023/04/14 13:14:05;;;;;;;1.70;1.07;;;20.40;68.90;;;;;;5052740;28;20459;-67